sensor_id;sensor_type;location;lat;lon;timestamp;P1;durP1;ratioP1;P2;durP2;ratioP2
3625;SDS011;1827;50.534;8.316;2022-10-15T00:00:49;17.60;;;5.20;;
3625;SDS011;1827;50.534;8.316;2022-10-15T00:03:15;16.80;;;5.00;;
3625;SDS011;1827;50.534;8.316;2022-10-15T00:05:41;21.70;;;5.10;;
3625;SDS011;1827;50.534;8.316;2022-10-15T00:08:07;18.73;;;4.40;;
3625;SDS011;1827;50.534;8.316;2022-10-15T00:10:34;22.73;;;5.87;;
3625;SDS011;1827;50.534;8.316;2022-10-15T00:13:02;27.40;;;6.30;;
3625;SDS011;1827;50.534;8.316;2022-10-15T00:15:28;22.93;;;6.07;;
3625;SDS011;1827;50.534;8.316;2022-10-15T00:17:54;29.37;;;5.87;;
3625;SDS011;1827;50.534;8.316;2022-10-15T00:20:20;22.90;;;6.27;;
3625;SDS011;1827;50.534;8.316;2022-10-15T00:22:46;25.20;;;6.00;;
3625;SDS011;1827;50.534;8.316;2022-10-15T00:25:12;23.20;;;5.70;;
3625;SDS011;1827;50.534;8.316;2022-10-15T00:27:38;22.00;;;6.10;;
3625;SDS011;1827;50.534;8.316;2022-10-15T00:30:04;20.13;;;6.90;;
3625;SDS011;1827;50.534;8.316;2022-10-15T00:32:31;25.90;;;6.93;;
3625;SDS011;1827;50.534;8.316;2022-10-15T00:34:56;21.67;;;6.97;;
3625;SDS011;1827;50.534;8.316;2022-10-15T00:37:22;20.77;;;5.87;;
3625;SDS011;1827;50.534;8.316;2022-10-15T00:39:49;25.70;;;5.95;;
3625;SDS011;1827;50.534;8.316;2022-10-15T00:42:15;20.80;;;6.03;;
3625;SDS011;1827;50.534;8.316;2022-10-15T00:44:54;22.50;;;6.30;;
3625;SDS011;1827;50.534;8.316;2022-10-15T00:47:28;24.90;;;7.57;;
3625;SDS011;1827;50.534;8.316;2022-10-15T00:57:57;19.60;;;6.47;;
3625;SDS011;1827;50.534;8.316;2022-10-15T01:00:26;18.97;;;5.63;;
3625;SDS011;1827;50.534;8.316;2022-10-15T01:02:52;21.57;;;7.23;;
3625;SDS011;1827;50.534;8.316;2022-10-15T01:05:18;18.87;;;6.27;;
3625;SDS011;1827;50.534;8.316;2022-10-15T01:07:44;19.17;;;5.50;;
3625;SDS011;1827;50.534;8.316;2022-10-15T01:10:12;18.63;;;5.87;;
3625;SDS011;1827;50.534;8.316;2022-10-15T01:12:50;21.63;;;7.53;;
3625;SDS011;1827;50.534;8.316;2022-10-15T01:15:50;19.90;;;7.10;;
3625;SDS011;1827;50.534;8.316;2022-10-15T01:18:28;23.77;;;6.90;;
3625;SDS011;1827;50.534;8.316;2022-10-15T01:21:07;38.43;;;7.60;;
3625;SDS011;1827;50.534;8.316;2022-10-15T01:27:14;22.30;;;7.03;;
3625;SDS011;1827;50.534;8.316;2022-10-15T01:29:56;22.90;;;6.30;;
3625;SDS011;1827;50.534;8.316;2022-10-15T01:40:50;28.17;;;8.50;;
3625;SDS011;1827;50.534;8.316;2022-10-15T01:43:30;34.80;;;8.30;;
3625;SDS011;1827;50.534;8.316;2022-10-15T01:46:42;33.90;;;10.03;;
3625;SDS011;1827;50.534;8.316;2022-10-15T01:49:23;31.50;;;10.20;;
3625;SDS011;1827;50.534;8.316;2022-10-15T01:51:53;39.27;;;9.50;;
3625;SDS011;1827;50.534;8.316;2022-10-15T01:54:22;69.63;;;10.03;;
3625;SDS011;1827;50.534;8.316;2022-10-15T01:56:50;21.67;;;8.63;;
3625;SDS011;1827;50.534;8.316;2022-10-15T01:59:24;20.50;;;7.07;;
3625;SDS011;1827;50.534;8.316;2022-10-15T02:01:53;20.57;;;6.87;;
3625;SDS011;1827;50.534;8.316;2022-10-15T02:06:46;22.83;;;8.27;;
3625;SDS011;1827;50.534;8.316;2022-10-15T02:09:40;29.83;;;8.40;;
3625;SDS011;1827;50.534;8.316;2022-10-15T02:23:17;28.93;;;7.90;;
3625;SDS011;1827;50.534;8.316;2022-10-15T02:25:46;22.40;;;7.97;;
3625;SDS011;1827;50.534;8.316;2022-10-15T02:28:14;29.13;;;7.97;;
3625;SDS011;1827;50.534;8.316;2022-10-15T02:30:42;25.10;;;8.50;;
3625;SDS011;1827;50.534;8.316;2022-10-15T02:33:11;22.30;;;8.43;;
3625;SDS011;1827;50.534;8.316;2022-10-15T02:35:39;22.70;;;8.37;;
3625;SDS011;1827;50.534;8.316;2022-10-15T02:38:07;24.30;;;7.80;;
3625;SDS011;1827;50.534;8.316;2022-10-15T02:40:35;36.17;;;8.30;;
3625;SDS011;1827;50.534;8.316;2022-10-15T02:43:04;38.87;;;8.27;;
3625;SDS011;1827;50.534;8.316;2022-10-15T02:45:30;68.70;;;9.80;;
3625;SDS011;1827;50.534;8.316;2022-10-15T02:47:57;36.33;;;8.33;;
3625;SDS011;1827;50.534;8.316;2022-10-15T02:50:23;29.53;;;8.10;;
3625;SDS011;1827;50.534;8.316;2022-10-15T02:52:49;21.53;;;7.73;;
3625;SDS011;1827;50.534;8.316;2022-10-15T02:55:16;24.60;;;7.77;;
3625;SDS011;1827;50.534;8.316;2022-10-15T02:57:41;23.50;;;7.77;;
3625;SDS011;1827;50.534;8.316;2022-10-15T03:00:07;24.87;;;8.00;;
3625;SDS011;1827;50.534;8.316;2022-10-15T03:02:34;30.70;;;9.13;;
3625;SDS011;1827;50.534;8.316;2022-10-15T03:05:00;34.25;;;7.55;;
3625;SDS011;1827;50.534;8.316;2022-10-15T03:07:26;27.80;;;9.27;;
3625;SDS011;1827;50.534;8.316;2022-10-15T03:09:52;34.80;;;9.90;;
3625;SDS011;1827;50.534;8.316;2022-10-15T03:12:18;27.10;;;9.07;;
3625;SDS011;1827;50.534;8.316;2022-10-15T03:14:50;23.70;;;7.60;;
3625;SDS011;1827;50.534;8.316;2022-10-15T03:17:16;25.30;;;7.30;;
3625;SDS011;1827;50.534;8.316;2022-10-15T03:19:42;19.97;;;6.40;;
3625;SDS011;1827;50.534;8.316;2022-10-15T03:22:09;23.87;;;7.70;;
3625;SDS011;1827;50.534;8.316;2022-10-15T03:24:45;21.77;;;7.50;;
3625;SDS011;1827;50.534;8.316;2022-10-15T03:27:11;30.53;;;8.53;;
3625;SDS011;1827;50.534;8.316;2022-10-15T03:29:36;23.80;;;7.90;;
3625;SDS011;1827;50.534;8.316;2022-10-15T03:32:02;30.55;;;8.10;;
3625;SDS011;1827;50.534;8.316;2022-10-15T03:34:28;24.33;;;8.27;;
3625;SDS011;1827;50.534;8.316;2022-10-15T03:36:55;20.57;;;6.90;;
3625;SDS011;1827;50.534;8.316;2022-10-15T03:39:21;27.40;;;8.00;;
3625;SDS011;1827;50.534;8.316;2022-10-15T03:41:51;29.30;;;7.37;;
3625;SDS011;1827;50.534;8.316;2022-10-15T03:44:22;22.10;;;6.70;;
3625;SDS011;1827;50.534;8.316;2022-10-15T03:47:00;26.93;;;7.27;;
3625;SDS011;1827;50.534;8.316;2022-10-15T03:49:36;26.40;;;7.00;;
3625;SDS011;1827;50.534;8.316;2022-10-15T03:52:04;23.60;;;7.37;;
3625;SDS011;1827;50.534;8.316;2022-10-15T03:54:31;26.77;;;7.50;;
3625;SDS011;1827;50.534;8.316;2022-10-15T03:56:56;27.40;;;7.67;;
3625;SDS011;1827;50.534;8.316;2022-10-15T03:59:28;19.33;;;6.70;;
3625;SDS011;1827;50.534;8.316;2022-10-15T04:01:57;23.03;;;6.70;;
3625;SDS011;1827;50.534;8.316;2022-10-15T04:04:23;45.90;;;8.10;;
3625;SDS011;1827;50.534;8.316;2022-10-15T04:06:50;38.60;;;8.43;;
3625;SDS011;1827;50.534;8.316;2022-10-15T04:09:17;25.50;;;7.30;;
3625;SDS011;1827;50.534;8.316;2022-10-15T04:11:42;21.47;;;7.60;;
3625;SDS011;1827;50.534;8.316;2022-10-15T04:14:09;23.00;;;6.90;;
3625;SDS011;1827;50.534;8.316;2022-10-15T04:16:35;21.13;;;7.10;;
3625;SDS011;1827;50.534;8.316;2022-10-15T04:19:10;32.70;;;7.10;;
3625;SDS011;1827;50.534;8.316;2022-10-15T04:21:35;24.17;;;6.20;;
3625;SDS011;1827;50.534;8.316;2022-10-15T04:24:03;22.00;;;6.50;;
3625;SDS011;1827;50.534;8.316;2022-10-15T04:26:34;21.50;;;5.97;;
3625;SDS011;1827;50.534;8.316;2022-10-15T04:29:00;19.10;;;5.80;;
3625;SDS011;1827;50.534;8.316;2022-10-15T04:31:26;18.80;;;6.10;;
3625;SDS011;1827;50.534;8.316;2022-10-15T04:33:52;20.70;;;6.27;;
3625;SDS011;1827;50.534;8.316;2022-10-15T04:36:18;24.90;;;6.50;;
3625;SDS011;1827;50.534;8.316;2022-10-15T04:38:51;20.70;;;6.50;;
3625;SDS011;1827;50.534;8.316;2022-10-15T04:41:46;20.00;;;6.63;;
3625;SDS011;1827;50.534;8.316;2022-10-15T04:52:23;30.43;;;8.47;;
3625;SDS011;1827;50.534;8.316;2022-10-15T04:54:54;172.70;;;9.60;;
3625;SDS011;1827;50.534;8.316;2022-10-15T04:57:21;125.93;;;7.33;;
3625;SDS011;1827;50.534;8.316;2022-10-15T04:59:47;19.53;;;6.50;;
3625;SDS011;1827;50.534;8.316;2022-10-15T05:02:45;219.80;;;7.27;;
3625;SDS011;1827;50.534;8.316;2022-10-15T05:05:19;33.17;;;5.20;;
3625;SDS011;1827;50.534;8.316;2022-10-15T05:07:54;20.40;;;5.60;;
3625;SDS011;1827;50.534;8.316;2022-10-15T05:10:30;17.67;;;5.37;;
3625;SDS011;1827;50.534;8.316;2022-10-15T05:13:01;83.00;;;5.57;;
3625;SDS011;1827;50.534;8.316;2022-10-15T05:17:56;46.50;;;6.97;;
3625;SDS011;1827;50.534;8.316;2022-10-15T05:20:28;18.10;;;5.33;;
3625;SDS011;1827;50.534;8.316;2022-10-15T05:22:54;21.50;;;5.40;;
3625;SDS011;1827;50.534;8.316;2022-10-15T05:25:21;32.37;;;5.17;;
3625;SDS011;1827;50.534;8.316;2022-10-15T05:27:47;17.50;;;4.70;;
3625;SDS011;1827;50.534;8.316;2022-10-15T05:30:13;17.67;;;4.77;;
3625;SDS011;1827;50.534;8.316;2022-10-15T05:32:49;16.70;;;4.70;;
3625;SDS011;1827;50.534;8.316;2022-10-15T05:35:17;17.67;;;4.37;;
3625;SDS011;1827;50.534;8.316;2022-10-15T05:38:02;21.00;;;5.57;;
3625;SDS011;1827;50.534;8.316;2022-10-15T05:40:28;19.83;;;5.33;;
3625;SDS011;1827;50.534;8.316;2022-10-15T05:43:17;19.43;;;4.63;;
3625;SDS011;1827;50.534;8.316;2022-10-15T05:45:42;19.10;;;5.13;;
3625;SDS011;1827;50.534;8.316;2022-10-15T05:48:08;19.40;;;5.77;;
3625;SDS011;1827;50.534;8.316;2022-10-15T05:50:34;18.27;;;4.70;;
3625;SDS011;1827;50.534;8.316;2022-10-15T05:53:02;15.80;;;4.10;;
3625;SDS011;1827;50.534;8.316;2022-10-15T05:55:45;16.73;;;4.70;;
3625;SDS011;1827;50.534;8.316;2022-10-15T05:58:11;18.73;;;6.07;;
3625;SDS011;1827;50.534;8.316;2022-10-15T06:00:37;18.63;;;5.17;;
3625;SDS011;1827;50.534;8.316;2022-10-15T06:03:03;20.00;;;6.80;;
3625;SDS011;1827;50.534;8.316;2022-10-15T06:05:30;25.27;;;7.80;;
3625;SDS011;1827;50.534;8.316;2022-10-15T06:07:56;23.90;;;7.33;;
3625;SDS011;1827;50.534;8.316;2022-10-15T06:10:21;22.50;;;8.00;;
3625;SDS011;1827;50.534;8.316;2022-10-15T06:12:48;27.10;;;10.10;;
3625;SDS011;1827;50.534;8.316;2022-10-15T06:15:14;31.30;;;11.63;;
3625;SDS011;1827;50.534;8.316;2022-10-15T06:17:41;36.70;;;12.23;;
3625;SDS011;1827;50.534;8.316;2022-10-15T06:20:06;31.90;;;10.90;;
3625;SDS011;1827;50.534;8.316;2022-10-15T06:22:32;27.77;;;10.60;;
3625;SDS011;1827;50.534;8.316;2022-10-15T06:24:58;23.87;;;8.13;;
3625;SDS011;1827;50.534;8.316;2022-10-15T06:27:24;25.43;;;8.53;;
3625;SDS011;1827;50.534;8.316;2022-10-15T06:29:50;30.63;;;10.00;;
3625;SDS011;1827;50.534;8.316;2022-10-15T06:32:15;30.37;;;10.13;;
3625;SDS011;1827;50.534;8.316;2022-10-15T06:34:42;21.30;;;7.00;;
3625;SDS011;1827;50.534;8.316;2022-10-15T06:37:08;28.70;;;8.10;;
3625;SDS011;1827;50.534;8.316;2022-10-15T06:39:34;21.00;;;6.67;;
3625;SDS011;1827;50.534;8.316;2022-10-15T06:42:00;29.93;;;7.57;;
3625;SDS011;1827;50.534;8.316;2022-10-15T06:44:36;20.37;;;7.00;;
3625;SDS011;1827;50.534;8.316;2022-10-15T06:47:02;21.13;;;7.17;;
3625;SDS011;1827;50.534;8.316;2022-10-15T06:49:28;21.70;;;6.90;;
3625;SDS011;1827;50.534;8.316;2022-10-15T06:51:54;25.17;;;7.53;;
3625;SDS011;1827;50.534;8.316;2022-10-15T06:54:19;21.00;;;7.10;;
3625;SDS011;1827;50.534;8.316;2022-10-15T06:56:45;22.70;;;7.60;;
3625;SDS011;1827;50.534;8.316;2022-10-15T06:59:11;24.40;;;9.20;;
3625;SDS011;1827;50.534;8.316;2022-10-15T07:01:37;23.20;;;8.37;;
3625;SDS011;1827;50.534;8.316;2022-10-15T07:04:02;27.53;;;10.33;;
3625;SDS011;1827;50.534;8.316;2022-10-15T07:06:28;32.00;;;11.40;;
3625;SDS011;1827;50.534;8.316;2022-10-15T07:08:53;25.40;;;9.90;;
3625;SDS011;1827;50.534;8.316;2022-10-15T07:11:19;25.00;;;9.10;;
3625;SDS011;1827;50.534;8.316;2022-10-15T07:13:45;22.47;;;8.13;;
3625;SDS011;1827;50.534;8.316;2022-10-15T07:16:11;20.17;;;7.27;;
3625;SDS011;1827;50.534;8.316;2022-10-15T07:18:37;21.00;;;7.53;;
3625;SDS011;1827;50.534;8.316;2022-10-15T07:21:04;19.73;;;6.37;;
3625;SDS011;1827;50.534;8.316;2022-10-15T07:23:31;18.70;;;6.10;;
3625;SDS011;1827;50.534;8.316;2022-10-15T07:25:58;22.33;;;6.27;;
3625;SDS011;1827;50.534;8.316;2022-10-15T07:28:24;18.40;;;5.83;;
3625;SDS011;1827;50.534;8.316;2022-10-15T07:30:50;18.90;;;4.97;;
3625;SDS011;1827;50.534;8.316;2022-10-15T07:33:16;20.33;;;5.57;;
3625;SDS011;1827;50.534;8.316;2022-10-15T07:35:52;23.33;;;5.77;;
3625;SDS011;1827;50.534;8.316;2022-10-15T07:38:17;17.73;;;4.80;;
3625;SDS011;1827;50.534;8.316;2022-10-15T07:40:43;19.50;;;4.43;;
3625;SDS011;1827;50.534;8.316;2022-10-15T07:43:09;16.80;;;3.83;;
3625;SDS011;1827;50.534;8.316;2022-10-15T07:45:35;19.80;;;3.93;;
3625;SDS011;1827;50.534;8.316;2022-10-15T07:48:01;17.03;;;4.00;;
3625;SDS011;1827;50.534;8.316;2022-10-15T07:50:27;18.40;;;3.87;;
3625;SDS011;1827;50.534;8.316;2022-10-15T07:52:57;17.27;;;4.67;;
3625;SDS011;1827;50.534;8.316;2022-10-15T07:55:23;19.23;;;4.40;;
3625;SDS011;1827;50.534;8.316;2022-10-15T07:57:49;19.33;;;4.13;;
3625;SDS011;1827;50.534;8.316;2022-10-15T08:00:15;17.97;;;4.10;;
3625;SDS011;1827;50.534;8.316;2022-10-15T08:02:41;20.00;;;3.97;;
3625;SDS011;1827;50.534;8.316;2022-10-15T08:07:33;20.67;;;4.97;;
3625;SDS011;1827;50.534;8.316;2022-10-15T08:09:59;22.20;;;5.27;;
3625;SDS011;1827;50.534;8.316;2022-10-15T08:12:26;17.50;;;4.97;;
3625;SDS011;1827;50.534;8.316;2022-10-15T08:14:51;22.53;;;4.73;;
3625;SDS011;1827;50.534;8.316;2022-10-15T08:17:18;20.17;;;4.80;;
3625;SDS011;1827;50.534;8.316;2022-10-15T08:19:44;17.70;;;4.60;;
3625;SDS011;1827;50.534;8.316;2022-10-15T08:22:09;17.87;;;4.43;;
3625;SDS011;1827;50.534;8.316;2022-10-15T08:24:36;19.03;;;4.20;;
3625;SDS011;1827;50.534;8.316;2022-10-15T08:27:02;19.07;;;3.80;;
3625;SDS011;1827;50.534;8.316;2022-10-15T08:29:28;17.77;;;3.97;;
3625;SDS011;1827;50.534;8.316;2022-10-15T08:31:53;14.83;;;3.70;;
3625;SDS011;1827;50.534;8.316;2022-10-15T08:34:21;16.57;;;3.57;;
3625;SDS011;1827;50.534;8.316;2022-10-15T08:36:47;18.10;;;3.83;;
3625;SDS011;1827;50.534;8.316;2022-10-15T08:39:13;15.20;;;3.20;;
3625;SDS011;1827;50.534;8.316;2022-10-15T08:41:46;17.20;;;3.13;;
3625;SDS011;1827;50.534;8.316;2022-10-15T08:44:23;15.77;;;2.80;;
3625;SDS011;1827;50.534;8.316;2022-10-15T08:46:56;14.60;;;2.60;;
3625;SDS011;1827;50.534;8.316;2022-10-15T08:49:35;15.73;;;2.63;;
3625;SDS011;1827;50.534;8.316;2022-10-15T08:55:13;20.27;;;2.70;;
3625;SDS011;1827;50.534;8.316;2022-10-15T09:03:04;16.10;;;3.10;;
3625;SDS011;1827;50.534;8.316;2022-10-15T09:06:06;15.63;;;2.67;;
3625;SDS011;1827;50.534;8.316;2022-10-15T09:13:54;15.37;;;2.70;;
3625;SDS011;1827;50.534;8.316;2022-10-15T09:16:28;17.37;;;3.10;;
3625;SDS011;1827;50.534;8.316;2022-10-15T09:19:03;15.13;;;2.60;;
3625;SDS011;1827;50.534;8.316;2022-10-15T09:21:37;15.20;;;2.37;;
3625;SDS011;1827;50.534;8.316;2022-10-15T09:24:03;25.60;;;2.50;;
3625;SDS011;1827;50.534;8.316;2022-10-15T09:26:31;13.17;;;2.03;;
3625;SDS011;1827;50.534;8.316;2022-10-15T09:42:55;13.63;;;1.60;;
3625;SDS011;1827;50.534;8.316;2022-10-15T09:45:22;15.30;;;1.57;;
3625;SDS011;1827;50.534;8.316;2022-10-15T09:47:48;19.20;;;1.77;;
3625;SDS011;1827;50.534;8.316;2022-10-15T09:50:14;19.83;;;2.10;;
3625;SDS011;1827;50.534;8.316;2022-10-15T09:55:59;16.47;;;2.70;;
3625;SDS011;1827;50.534;8.316;2022-10-15T09:58:29;15.47;;;2.10;;
3625;SDS011;1827;50.534;8.316;2022-10-15T10:01:02;15.13;;;1.77;;
3625;SDS011;1827;50.534;8.316;2022-10-15T10:03:34;13.10;;;1.60;;
3625;SDS011;1827;50.534;8.316;2022-10-15T10:06:05;12.80;;;1.50;;
3625;SDS011;1827;50.534;8.316;2022-10-15T10:08:38;17.37;;;1.43;;
3625;SDS011;1827;50.534;8.316;2022-10-15T10:11:11;14.33;;;1.60;;
3625;SDS011;1827;50.534;8.316;2022-10-15T10:13:43;18.17;;;1.70;;
3625;SDS011;1827;50.534;8.316;2022-10-15T10:16:13;12.93;;;1.47;;
3625;SDS011;1827;50.534;8.316;2022-10-15T10:18:41;19.90;;;1.30;;
3625;SDS011;1827;50.534;8.316;2022-10-15T10:21:30;16.20;;;1.50;;
3625;SDS011;1827;50.534;8.316;2022-10-15T10:26:55;20.50;;;1.50;;
3625;SDS011;1827;50.534;8.316;2022-10-15T10:29:22;16.00;;;1.50;;
3625;SDS011;1827;50.534;8.316;2022-10-15T10:31:49;22.07;;;1.70;;
3625;SDS011;1827;50.534;8.316;2022-10-15T10:34:26;15.10;;;1.60;;
3625;SDS011;1827;50.534;8.316;2022-10-15T10:36:54;18.50;;;1.57;;
3625;SDS011;1827;50.534;8.316;2022-10-15T10:39:24;16.47;;;1.20;;
3625;SDS011;1827;50.534;8.316;2022-10-15T10:41:56;12.90;;;1.40;;
3625;SDS011;1827;50.534;8.316;2022-10-15T10:47:01;16.83;;;1.73;;
3625;SDS011;1827;50.534;8.316;2022-10-15T10:49:30;15.00;;;1.40;;
3625;SDS011;1827;50.534;8.316;2022-10-15T10:51:58;19.13;;;1.60;;
3625;SDS011;1827;50.534;8.316;2022-10-15T10:54:24;15.17;;;1.60;;
3625;SDS011;1827;50.534;8.316;2022-10-15T10:56:53;15.00;;;1.10;;
3625;SDS011;1827;50.534;8.316;2022-10-15T10:59:33;12.80;;;1.10;;
3625;SDS011;1827;50.534;8.316;2022-10-15T11:02:02;12.57;;;1.20;;
